| time (UTC) | temp F | wind direction | speed knots | gust knots | rain 1hr in | rain 24hr in | rain mn in | humidity % | barometer mb |
| 20260506102920 | 64 | 206 | 0.9 | 1.7 | 0.00 | 1.58 | 0.00 | 77 | 1013.8 |
| 20260506102220 | 64 | 206 | 0.9 | 1.7 | 0.00 | 1.58 | 0.00 | 77 | 1013.6 |
| 20260506101519 | 64 | 209 | 1.7 | 4.3 | 0.00 | 1.58 | 0.00 | 75 | 1013.3 |
| 20260506100819 | 64 | 216 | 0.9 | 4.3 | 0.00 | 1.58 | 0.00 | 77 | 1013.4 |
| 20260506100120 | 64 | 225 | 0.9 | 3.5 | 0.00 | 1.58 | 0.00 | 75 | 1013.2 |
| 20260506095420 | 64 | 225 | 0.0 | 1.7 | 0.00 | 1.58 | 0.00 | 76 | 1013.4 |
| 20260506094720 | 64 | 223 | 0.9 | 4.3 | 0.00 | 1.58 | 0.00 | 76 | 1013.4 |
| 20260506094020 | 64 | 227 | 1.7 | 7.0 | 0.00 | 1.58 | 0.00 | 76 | 1013.3 |
| 20260506093320 | 64 | 240 | 1.7 | 7.0 | 0.00 | 1.58 | 0.00 | 75 | 1013.2 |
| 20260506092619 | 65 | 223 | 0.9 | 3.5 | 0.00 | 1.58 | 0.00 | 76 | 1013.1 |
| 20260506091920 | 64 | 227 | 2.6 | 7.0 | 0.00 | 1.58 | 0.00 | 75 | 1013.1 |
| 20260506091220 | 64 | 225 | 1.7 | 7.0 | 0.00 | 1.58 | 0.00 | 76 | 1013.1 |
| 20260506090520 | 63 | 224 | 0.9 | 3.5 | 0.00 | 1.58 | 0.00 | 76 | 1012.9 |
| 20260506085820 | 63 | 205 | 0.9 | 4.3 | 0.00 | 1.58 | 0.00 | 78 | 1012.7 |
| 20260506085119 | 63 | 172 | 0.9 | 3.5 | 0.00 | 1.58 | 0.00 | 78 | 1013.0 |
| 20260506084420 | 63 | 172 | 0.0 | 2.6 | 0.00 | 1.58 | 0.00 | 78 | 1013.0 |
| 20260506083020 | 63 | 144 | 0.0 | 1.7 | 0.00 | 1.58 | 0.00 | 78 | 1013.1 |
| 20260506082320 | 63 | 21 | 0.9 | 4.3 | 0.00 | 1.58 | 0.00 | 79 | 1013.4 |
| 20260506080920 | 62 | 96 | 0.9 | 7.0 | 0.00 | 1.58 | 0.00 | 79 | 1013.1 |
| 20260506073420 | 60 | 153 | 0.9 | 5.2 | 0.00 | 1.58 | 0.00 | 82 | 1013.6 |
| 20260506072020 | 60 | 27 | 0.9 | 4.3 | 0.00 | 1.58 | 0.00 | 84 | 1013.5 |
| 20260506070619 | 59 | 34 | 0.9 | 3.5 | 0.00 | 1.58 | 0.00 | 85 | 1013.9 |
| 20260506061020 | 59 | 40 | 0.9 | 5.2 | 0.00 | 1.58 | 0.00 | 85 | 1014.2 |
| 20260506060320 | 59 | 35 | 0.9 | 5.2 | 0.00 | 1.58 | 0.00 | 85 | 1014.3 |
| 20260506050719 | 59 | 45 | 0.0 | 0.9 | 0.00 | 1.58 | 0.00 | 85 | 1014.6 |
| 20260506043919 | 59 | 63 | 0.0 | 1.7 | 0.00 | 1.58 | 0.00 | 84 | 1014.5 |
| 20260506042520 | 59 | 62 | 0.9 | 4.3 | 0.00 | 1.58 | 0.00 | 84 | 1014.4 |
| 20260506041819 | 59 | 60 | 0.0 | 4.3 | 0.00 | 1.58 | 0.00 | 84 | 1014.7 |
| 20260506040420 | 59 | 60 | 0.0 | 1.7 | 0.00 | 1.58 | 0.00 | 85 | 1014.6 |
| 20260506035719 | 59 | 52 | 0.0 | 3.5 | 0.00 | 1.58 | 1.58 | 84 | 1014.5 |
| 20260506035019 | 58 | 27 | 0.0 | 3.5 | 0.00 | 1.58 | 1.58 | 84 | 1014.5 |
| 20260506034319 | 58 | 5 | 0.9 | 4.3 | 0.00 | 1.58 | 1.58 | 84 | 1014.8 |
| 20260506032919 | 58 | 12 | 0.9 | 3.5 | 0.00 | 1.58 | 1.58 | 84 | 1014.8 |
| 20260506032219 | 58 | 16 | 0.9 | 3.5 | 0.00 | 1.58 | 1.58 | 84 | 1014.8 |
| 20260506031520 | 58 | 3 | 0.9 | 3.5 | 0.00 | 1.58 | 1.58 | 85 | 1014.5 |
| 20260506030819 | 58 | 353 | 0.9 | 4.3 | 0.00 | 1.58 | 1.58 | 85 | 1014.6 |
| 20260506030119 | 58 | 21 | 1.7 | 4.3 | 0.00 | 1.58 | 1.58 | 86 | 1014.5 |
| 20260506025419 | 58 | 52 | 0.0 | 1.7 | 0.00 | 1.58 | 1.58 | 85 | 1014.6 |
| 20260506024019 | 58 | 52 | 0.0 | 1.7 | 0.00 | 1.58 | 1.58 | 85 | 1014.9 |
| 20260506023319 | 58 | 53 | 0.9 | 1.7 | 0.00 | 1.58 | 1.58 | 85 | 1014.7 |
| 20260506022619 | 57 | 54 | 0.9 | 1.7 | 0.00 | 1.58 | 1.58 | 86 | 1014.6 |
| 20260506021919 | 57 | 55 | 0.9 | 3.5 | 0.00 | 1.58 | 1.58 | 86 | 1014.4 |
| 20260506014624 | 58 | 90 | 0.0 | 3.5 | 1.58 | 1.58 | 1.58 | 84 | 1014.4 |
| 20260506013924 | 58 | 90 | 0.0 | 3.5 | 1.58 | 1.58 | 1.58 | 83 | 1014.3 |
| 20260506013224 | 58 | 101 | 0.9 | 4.3 | 1.58 | 1.58 | 1.58 | 82 | 1014.3 |
| 20260506011124 | 59 | 54 | 0.0 | 1.7 | 1.58 | 1.58 | 1.58 | 82 | 1014.2 |